Time;durP1;ratioP1;P1;durP2;ratioP2;P2;SDS_P1;SDS_P2;PMS_P1;PMS_P2;Temp;Humidity;BMP_temperature;BMP_pressure;BME280_temperature;BME280_humidity;BME280_pressure;Samples;Min_cycle;Max_cycle;Signal;HPM_P1;HPM_P2
2021/10/26 00:01:41;;;;;;;12.75;8.55;;;;;;;12.46;72.12;99103.94;5101959;28;20073;-95
2021/10/26 00:04:08;;;;;;;13.25;8.15;;;;;;;12.62;72.24;99140.81;5100755;28;20040;-94
2021/10/26 00:06:35;;;;;;;12.32;7.80;;;;;;;12.56;72.19;99127.69;5102272;28;20044;-94
2021/10/26 00:09:01;;;;;;;13.15;7.72;;;;;;;12.44;72.36;99116.44;5116340;28;20040;-95
2021/10/26 00:11:27;;;;;;;14.10;8.00;;;;;;;12.53;72.75;99137.53;5105290;28;20052;-94
2021/10/26 00:13:53;;;;;;;15.35;7.90;;;;;;;12.49;72.53;99125.19;5100989;28;20047;-95
2021/10/26 00:16:19;;;;;;;14.07;7.95;;;;;;;12.37;72.81;99114.88;5101166;28;20048;-96
2021/10/26 00:18:45;;;;;;;13.43;7.78;;;;;;;12.39;72.68;99114.84;5099868;28;20490;-95
2021/10/26 00:21:13;;;;;;;14.15;7.97;;;;;;;12.47;72.85;99127.03;5101339;28;20094;-95
2021/10/26 00:23:41;;;;;;;13.93;7.75;;;;;;;12.52;72.68;99134.91;5120799;28;20052;-96
2021/10/26 00:26:07;;;;;;;15.52;7.60;;;;;;;12.36;72.81;99110.47;5122818;28;20450;-94
2021/10/26 00:28:34;;;;;;;14.55;7.78;;;;;;;12.43;72.68;99130.69;5111822;28;20042;-95
2021/10/26 00:31:00;;;;;;;14.07;8.27;;;;;;;12.40;72.72;99119.22;5101259;28;20101;-95
2021/10/26 00:33:27;;;;;;;15.23;8.50;;;;;;;12.40;72.54;99109.44;5101734;28;20040;-94
2021/10/26 00:35:53;;;;;;;16.05;8.23;;;;;;;12.50;72.62;99120.72;5101114;28;20181;-94
2021/10/26 00:38:22;;;;;;;11.75;7.80;;;;;;;12.42;72.97;99102.25;5101398;28;20528;-94
2021/10/26 00:40:48;;;;;;;15.00;8.17;;;;;;;12.57;72.52;99129.41;5102109;28;20051;-94
2021/10/26 00:43:15;;;;;;;13.45;8.20;;;;;;;12.48;72.35;99101.22;5101196;28;20050;-94
2021/10/26 00:45:41;;;;;;;13.38;8.10;;;;;;;12.48;72.64;99094.09;5102029;28;20227;-94
2021/10/26 00:48:07;;;;;;;16.38;8.35;;;;;;;12.61;72.94;99125.75;5101729;28;20074;-96
2021/10/26 00:50:34;;;;;;;16.30;8.20;;;;;;;12.48;72.67;99103.88;5102139;28;20397;-94
2021/10/26 00:53:00;;;;;;;13.15;7.28;;;;;;;12.55;72.58;99105.44;5100548;28;20493;-94
2021/10/26 00:55:30;;;;;;;15.52;8.30;;;;;;;12.64;72.36;99115.88;5099716;28;20040;-95
2021/10/26 00:57:56;;;;;;;13.13;7.57;;;;;;;12.59;72.35;99103.56;5101021;28;20045;-94
2021/10/26 01:00:22;;;;;;;12.60;7.63;;;;;;;12.65;72.49;99111.41;5113613;28;20047;-95
2021/10/26 01:02:48;;;;;;;13.48;7.88;;;;;;;12.64;72.70;99112.31;5120963;28;20044;-94
2021/10/26 01:05:15;;;;;;;14.45;7.95;;;;;;;12.50;72.70;99086.03;5121776;28;20044;-95
2021/10/26 01:07:41;;;;;;;16.98;7.43;;;;;;;12.52;73.79;99097.56;5121932;28;20040;-96
2021/10/26 01:10:08;;;;;;;12.73;7.97;;;;;;;12.38;74.12;99079.25;5121827;28;20040;-95
2021/10/26 01:12:37;;;;;;;12.60;8.23;;;;;;;12.33;74.35;99083.88;5121938;28;20580;-95
2021/10/26 01:15:03;;;;;;;16.53;7.87;;;;;;;12.47;73.74;99097.69;5121980;28;20039;-94
2021/10/26 01:17:29;;;;;;;13.48;8.07;;;;;;;12.26;73.75;99074.31;5121729;28;20054;-93
2021/10/26 01:19:57;;;;;;;15.10;7.93;;;;;;;12.26;73.53;99063.66;5122256;28;20126;-95
2021/10/26 01:22:28;;;;;;;12.90;7.77;;;;;;;12.32;73.44;99063.47;5121071;28;20043;-95
2021/10/26 01:24:55;;;;;;;13.65;7.70;;;;;;;12.30;73.53;99063.50;5123675;28;20133;-96
2021/10/26 01:27:22;;;;;;;13.68;8.10;;;;;;;12.31;73.48;99067.03;5126119;28;20070;-95
2021/10/26 01:29:48;;;;;;;12.30;8.23;;;;;;;12.48;73.24;99096.75;5125347;28;20051;-95
2021/10/26 01:32:15;;;;;;;14.52;7.90;;;;;;;12.30;73.42;99065.31;5125987;28;20123;-95
2021/10/26 01:34:42;;;;;;;14.07;8.80;;;;;;;12.30;74.01;99075.97;5125233;28;20040;-95
2021/10/26 01:37:11;;;;;;;13.43;7.40;;;;;;;12.36;73.52;99081.13;5125291;28;20138;-95
2021/10/26 01:39:38;;;;;;;12.05;7.45;;;;;;;12.35;74.06;99086.50;5125474;28;20039;-94
2021/10/26 01:42:06;;;;;;;14.48;8.07;;;;;;;12.31;73.93;99080.38;5125624;28;20069;-96
2021/10/26 01:44:32;;;;;;;13.02;7.65;;;;;;;12.30;74.07;99076.84;5125388;28;20078;-94
2021/10/26 01:46:59;;;;;;;14.50;7.57;;;;;;;12.26;73.87;99066.31;5125675;28;20039;-94
2021/10/26 01:49:25;;;;;;;12.85;7.70;;;;;;;12.17;74.05;99053.25;5124740;28;20134;-95
2021/10/26 01:51:51;;;;;;;13.63;7.97;;;;;;;12.23;73.96;99061.94;5124604;28;20082;-94
2021/10/26 01:54:19;;;;;;;12.38;8.05;;;;;;;12.22;73.88;99068.19;5125113;28;20047;-94
2021/10/26 01:56:46;;;;;;;12.68;7.80;;;;;;;12.35;74.20;99089.16;5125101;28;20126;-94
2021/10/26 01:59:12;;;;;;;13.70;8.07;;;;;;;12.22;74.89;99065.53;5123918;28;20040;-95
2021/10/26 02:01:38;;;;;;;14.35;8.15;;;;;;;12.15;75.05;99063.09;5123618;28;20505;-94
2021/10/26 02:04:04;;;;;;;13.95;8.32;;;;;;;12.15;75.42;99069.28;5123395;28;20515;-94
2021/10/26 02:06:30;;;;;;;12.23;8.30;;;;;;;12.33;75.54;99105.22;5124343;28;20079;-96
2021/10/26 02:09:00;;;;;;;13.43;7.82;;;;;;;12.10;75.62;99066.75;5123920;28;20508;-96
2021/10/26 02:11:27;;;;;;;16.20;9.05;;;;;;;12.13;76.10;99071.13;5122302;28;20044;-96
2021/10/26 02:13:53;;;;;;;16.88;8.90;;;;;;;12.23;76.30;99091.28;5122914;28;20035;-95
2021/10/26 02:16:19;;;;;;;17.45;9.63;;;;;;;12.07;76.56;99066.81;5123380;28;20046;-96
2021/10/26 02:18:45;;;;;;;16.45;8.73;;;;;;;12.13;76.94;99076.44;5123701;28;20050;-95
2021/10/26 02:21:11;;;;;;;16.20;8.90;;;;;;;12.05;77.52;99066.00;5123447;28;20451;-95
2021/10/26 02:23:37;;;;;;;18.35;10.75;;;;;;;12.03;77.93;99070.50;5122011;28;20040;-96
2021/10/26 02:26:05;;;;;;;17.70;9.77;;;;;;;12.01;78.25;99060.78;5123421;28;20044;-95
2021/10/26 02:28:32;;;;;;;14.40;9.90;;;;;;;12.05;78.31;99071.31;5121922;28;20046;-95
2021/10/26 02:30:59;;;;;;;16.30;9.45;;;;;;;12.05;78.70;99067.78;5123728;28;20079;-95
2021/10/26 02:33:25;;;;;;;17.15;10.25;;;;;;;12.08;78.92;99067.72;5123466;28;20039;-96
2021/10/26 02:35:51;;;;;;;17.95;9.88;;;;;;;12.03;78.69;99066.97;5123378;28;20126;-95
2021/10/26 02:38:17;;;;;;;16.70;10.32;;;;;;;12.20;78.58;99088.69;5121472;28;20054;-95
2021/10/26 02:40:43;;;;;;;19.42;10.65;;;;;;;12.12;78.34;99064.94;5123568;28;20043;-95
2021/10/26 02:43:09;;;;;;;16.08;10.05;;;;;;;12.15;78.38;99068.41;5123055;28;20054;-96
2021/10/26 02:45:37;;;;;;;17.55;10.13;;;;;;;12.27;78.39;99084.03;5121996;28;20048;-94
2021/10/26 02:48:04;;;;;;;17.77;9.73;;;;;;;12.27;78.21;99082.28;5118264;28;20065;-95
2021/10/26 02:50:30;;;;;;;15.95;9.50;;;;;;;12.13;77.53;99063.13;5121476;28;20366;-95
2021/10/26 02:52:56;;;;;;;16.38;10.05;;;;;;;12.15;78.08;99053.28;5122587;28;20036;-95
2021/10/26 02:55:23;;;;;;;15.30;7.65;;;;;;;12.19;75.18;99057.63;5123144;28;20055;-95
2021/10/26 02:57:48;;;;;;;13.02;7.88;;;;;;;12.20;75.06;99053.16;5122904;28;20108;-95
2021/10/26 03:00:15;;;;;;;13.48;7.32;;;;;;;12.38;74.41;99062.41;5123413;28;20062;-96
2021/10/26 03:02:42;;;;;;;12.65;7.90;;;;;;;12.43;73.71;99063.16;5123524;28;20401;-94
2021/10/26 03:05:09;;;;;;;14.07;8.18;;;;;;;12.34;73.80;99048.31;5122920;28;20050;-95
2021/10/26 03:07:38;;;;;;;14.93;7.53;;;;;;;12.51;73.25;99079.78;5123147;28;20075;-95
2021/10/26 03:10:05;;;;;;;14.05;7.45;;;;;;;12.47;73.37;99072.78;5121488;28;20044;-94
2021/10/26 03:12:31;;;;;;;10.70;7.07;;;;;;;12.47;73.79;99073.69;5121282;28;20378;-94
2021/10/26 03:14:57;;;;;;;11.40;7.68;;;;;;;12.51;73.71;99067.34;5119071;28;20485;-95
2021/10/26 03:17:24;;;;;;;15.23;7.70;;;;;;;12.48;73.22;99056.75;5119793;28;20054;-96
2021/10/26 03:19:52;;;;;;;12.90;7.40;;;;;;;12.47;73.15;99046.09;5123780;28;20082;-95
2021/10/26 03:22:18;;;;;;;13.63;7.93;;;;;;;12.63;72.86;99075.88;5122324;28;20176;-95
2021/10/26 03:24:44;;;;;;;13.25;7.18;;;;;;;12.46;73.26;99041.72;5120892;28;20043;-94
2021/10/26 03:27:10;;;;;;;14.13;7.57;;;;;;;12.55;73.28;99062.75;5123057;28;20502;-95
2021/10/26 03:29:36;;;;;;;14.65;7.13;;;;;;;12.54;72.85;99053.91;5122010;28;20039;-95
2021/10/26 03:32:03;;;;;;;14.38;7.25;;;;;;;12.47;73.54;99054.13;5122370;28;20052;-95
2021/10/26 03:34:30;;;;;;;13.57;7.40;;;;;;;12.51;73.38;99056.66;5121645;28;20497;-95
2021/10/26 03:36:57;;;;;;;16.83;8.27;;;;;;;12.53;74.14;99051.25;5119779;28;20054;-95
2021/10/26 03:39:23;;;;;;;15.15;7.30;;;;;;;12.49;72.92;99037.16;5121662;28;20054;-95
2021/10/26 03:41:49;;;;;;;12.52;7.40;;;;;;;12.63;73.40;99067.88;5121853;28;20397;-93
2021/10/26 03:44:15;;;;;;;13.00;7.35;;;;;;;12.45;73.24;99046.19;5118535;28;20039;-95
2021/10/26 03:46:41;;;;;;;14.70;8.27;;;;;;;12.52;73.90;99055.72;5118159;28;20047;-95
2021/10/26 03:49:09;;;;;;;17.35;8.50;;;;;;;12.41;74.92;99035.66;5117751;28;20153;-96
2021/10/26 03:51:35;;;;;;;13.48;8.38;;;;;;;12.58;74.95;99069.78;5119077;28;20055;-96
2021/10/26 03:54:02;;;;;;;15.55;9.00;;;;;;;12.56;75.48;99071.66;5119226;28;20047;-95
2021/10/26 03:56:28;;;;;;;14.45;8.35;;;;;;;12.44;75.55;99046.22;5117319;28;20089;-96
2021/10/26 03:58:55;;;;;;;15.13;8.45;;;;;;;12.51;75.03;99054.00;5116379;28;20043;-95
2021/10/26 04:01:21;;;;;;;14.30;8.23;;;;;;;12.53;75.14;99067.28;5116583;28;20044;-95
2021/10/26 04:03:47;;;;;;;13.20;7.50;;;;;;;12.49;73.61;99045.16;5116263;28;20046;-95
2021/10/26 04:06:16;;;;;;;13.13;7.38;;;;;;;12.45;73.73;99042.66;5117675;28;20035;-96
2021/10/26 04:14:38;;;;;;;11.57;7.40;;;;;;;12.34;74.20;99037.63;5117263;27;20373;-95
2021/10/26 04:17:04;;;;;;;14.40;7.90;;;;;;;12.36;74.41;99043.81;5118129;28;20401;-95
2021/10/26 04:19:30;;;;;;;12.60;7.60;;;;;;;12.48;74.39;99064.75;5115887;28;20044;-95
2021/10/26 04:21:55;;;;;;;11.95;7.07;;;;;;;12.49;74.13;99068.28;5114448;28;20455;-95
2021/10/26 04:24:21;;;;;;;11.65;7.25;;;;;;;12.49;73.76;99050.50;5116780;28;20135;-94
2021/10/26 04:26:47;;;;;;;13.57;7.38;;;;;;;12.50;74.02;99062.91;5116104;28;20093;-94
2021/10/26 04:29:14;;;;;;;12.73;7.55;;;;;;;12.30;74.10;99049.31;5116190;28;20139;-95
2021/10/26 04:31:42;;;;;;;13.80;7.18;;;;;;;12.28;74.50;99044.00;5117547;28;20040;-94
2021/10/26 04:34:07;;;;;;;13.88;7.50;;;;;;;12.21;74.57;99037.13;5115249;28;20044;-94
2021/10/26 04:36:33;;;;;;;11.80;7.25;;;;;;;12.33;74.82;99051.88;5116927;28;20093;-95
2021/10/26 04:38:59;;;;;;;15.43;7.53;;;;;;;12.42;74.79;99059.59;5114448;28;20054;-94
2021/10/26 04:41:26;;;;;;;12.13;7.32;;;;;;;12.42;74.41;99059.59;5117633;28;20048;-94
2021/10/26 04:43:53;;;;;;;13.40;7.57;;;;;;;12.39;74.81;99062.38;5113069;28;20048;-94
2021/10/26 04:46:19;;;;;;;12.73;7.75;;;;;;;12.41;74.54;99067.66;5114853;28;20405;-93
2021/10/26 04:48:46;;;;;;;14.32;8.23;;;;;;;12.35;74.06;99050.03;5114299;28;20100;-94
2021/10/26 04:51:12;;;;;;;15.38;8.00;;;;;;;12.50;73.49;99048.69;5114116;28;20051;-95
2021/10/26 04:53:38;;;;;;;12.45;7.70;;;;;;;12.54;74.01;99059.22;5114760;28;20040;-94
2021/10/26 04:56:04;;;;;;;11.30;7.75;;;;;;;12.40;74.07;99049.88;5113853;28;20044;-95
2021/10/26 04:58:30;;;;;;;11.18;7.03;;;;;;;12.31;74.37;99037.72;5115922;28;20082;-94
2021/10/26 05:00:56;;;;;;;13.77;7.10;;;;;;;12.40;73.97;99052.56;5115467;28;20040;-95
2021/10/26 05:03:22;;;;;;;11.40;6.72;;;;;;;12.39;74.38;99054.34;5114841;28;20069;-94
2021/10/26 05:05:49;;;;;;;13.68;7.78;;;;;;;12.33;74.61;99055.41;5115663;28;20134;-94
2021/10/26 05:08:15;;;;;;;14.25;7.13;;;;;;;12.18;74.70;99029.19;5117142;28;20063;-93
2021/10/26 05:10:41;;;;;;;16.50;7.38;;;;;;;12.40;74.39;99064.09;5116528;28;20139;-95
2021/10/26 05:13:07;;;;;;;14.30;7.97;;;;;;;12.34;74.40;99050.97;5116263;28;20563;-94
2021/10/26 05:15:33;;;;;;;12.85;7.68;;;;;;;12.27;74.33;99046.72;5114952;28;20040;-94
2021/10/26 05:17:59;;;;;;;11.95;7.13;;;;;;;12.35;74.26;99058.03;5114320;28;20457;-94
2021/10/26 05:20:26;;;;;;;12.30;7.32;;;;;;;12.31;74.27;99051.91;5113712;28;20036;-94
2021/10/26 05:22:55;;;;;;;13.40;7.75;;;;;;;12.40;75.01;99071.22;5114127;28;20042;-95
2021/10/26 05:25:21;;;;;;;14.68;7.78;;;;;;;12.20;74.87;99037.16;5104407;28;20048;-95
2021/10/26 05:27:47;;;;;;;13.43;7.88;;;;;;;12.39;75.10;99080.16;5102734;28;20040;-95
2021/10/26 05:30:13;;;;;;;12.02;7.30;;;;;;;12.31;75.23;99072.38;5102719;28;20052;-94
2021/10/26 05:32:40;;;;;;;13.90;8.10;;;;;;;12.25;75.19;99068.13;5103694;28;20545;-95
2021/10/26 05:35:07;;;;;;;19.67;10.57;;;;;;;12.25;76.00;99064.53;5100506;28;20040;-95
2021/10/26 05:37:33;;;;;;;21.08;12.25;;;;;;;12.30;76.23;99076.84;5100760;28;20040;-94
2021/10/26 05:40:01;;;;;;;23.52;13.20;;;;;;;12.27;77.01;99074.28;5100623;28;20040;-92
2021/10/26 05:42:28;;;;;;;22.42;12.40;;;;;;;12.10;77.10;99045.44;5100312;28;20198;-94
2021/10/26 05:44:54;;;;;;;20.90;12.95;;;;;;;12.09;77.67;99059.66;5101236;28;20075;-94
2021/10/26 05:47:22;;;;;;;20.92;11.73;;;;;;;12.01;77.98;99058.13;5105307;28;20036;-95
2021/10/26 05:49:47;;;;;;;23.27;11.80;;;;;;;11.97;77.71;99064.47;5102135;28;20048;-94
2021/10/26 05:52:14;;;;;;;16.83;11.40;;;;;;;11.96;78.29;99071.59;5099539;28;20105;-95
2021/10/26 05:54:40;;;;;;;21.80;10.98;;;;;;;11.99;78.34;99071.53;5100881;28;20075;-93
2021/10/26 05:57:08;;;;;;;18.27;11.85;;;;;;;11.97;78.62;99069.78;5102066;28;20397;-95
2021/10/26 05:59:34;;;;;;;18.83;10.65;;;;;;;11.95;78.98;99072.53;5102694;28;20044;-95
2021/10/26 06:02:00;;;;;;;24.10;12.00;;;;;;;11.89;79.43;99076.22;5100616;28;20070;-95
2021/10/26 06:04:26;;;;;;;19.52;11.38;;;;;;;11.92;79.68;99077.91;5099124;28;20075;-95
2021/10/26 06:06:52;;;;;;;18.67;11.95;;;;;;;11.89;79.52;99070.88;5102271;28;20048;-95
2021/10/26 06:09:19;;;;;;;19.38;12.30;;;;;;;11.91;79.03;99078.84;5098198;28;20048;-96
2021/10/26 06:11:48;;;;;;;21.45;13.05;;;;;;;12.00;78.92;99093.72;5102629;28;20032;-95
2021/10/26 06:14:15;;;;;;;24.48;12.50;;;;;;;11.93;79.57;99082.34;5103303;28;20494;-95
2021/10/26 06:16:41;;;;;;;22.77;12.35;;;;;;;12.05;79.43;99095.31;5100204;28;20062;-95
2021/10/26 06:19:08;;;;;;;21.40;11.93;;;;;;;12.06;79.47;99091.75;5102510;28;20048;-95
2021/10/26 06:21:34;;;;;;;24.27;12.77;;;;;;;12.15;79.57;99108.41;5102313;28;20055;-95
2021/10/26 06:24:01;;;;;;;22.48;11.65;;;;;;;12.00;79.74;99094.56;5103988;28;20047;-94
2021/10/26 06:26:30;;;;;;;24.92;12.32;;;;;;;12.06;79.40;99102.41;5101617;28;20097;-95
2021/10/26 06:28:56;;;;;;;22.85;11.77;;;;;;;12.08;79.84;99091.72;5102196;28;20100;-93
2021/10/26 06:31:24;;;;;;;20.95;11.60;;;;;;;12.16;80.07;99099.47;5101760;28;20436;-93
2021/10/26 06:33:50;;;;;;;23.00;11.57;;;;;;;12.20;79.56;99107.34;5100826;28;20036;-94
2021/10/26 06:36:16;;;;;;;17.52;10.13;;;;;;;12.39;79.35;99125.50;5101235;28;20044;-93
2021/10/26 06:38:42;;;;;;;22.92;12.40;;;;;;;12.41;78.18;99121.88;5100688;28;20044;-93
2021/10/26 06:41:08;;;;;;;23.38;11.93;;;;;;;12.53;77.99;99136.63;5102437;28;20048;-94
2021/10/26 06:43:35;;;;;;;20.83;11.55;;;;;;;12.48;78.79;99107.41;5101069;28;20047;-95
2021/10/26 06:46:01;;;;;;;21.70;10.98;;;;;;;12.48;77.61;99102.09;5104319;28;20413;-95
2021/10/26 06:48:30;;;;;;;18.42;10.57;;;;;;;12.65;77.55;99122.06;5103776;28;20135;-92
2021/10/26 06:50:56;;;;;;;14.02;8.77;;;;;;;12.64;76.75;99106.97;5105313;28;20109;-95
2021/10/26 06:53:24;;;;;;;15.35;8.55;;;;;;;12.75;76.45;99118.19;5105718;28;20042;-94
2021/10/26 06:55:51;;;;;;;15.82;8.15;;;;;;;12.77;76.13;99107.47;5105921;28;20083;-94
2021/10/26 06:58:17;;;;;;;16.42;8.48;;;;;;;12.90;75.35;99123.09;5105868;28;20055;-96
2021/10/26 07:00:43;;;;;;;13.63;7.85;;;;;;;13.09;74.38;99139.38;5106889;28;20036;-95
2021/10/26 07:03:12;;;;;;;12.45;7.32;;;;;;;13.22;73.51;99141.66;5105456;28;20048;-94
2021/10/26 07:05:40;;;;;;;;;;;;;;;13.38;73.78;99155.44;5101487;28;20371;-95
2021/10/26 07:08:06;;;;;;;13.02;7.10;;;;;;;13.28;73.47;99130.78;5102004;28;19920;-96
2021/10/26 07:10:32;;;;;;;14.35;8.15;;;;;;;13.28;73.18;99122.78;5103561;28;20048;-96
2021/10/26 07:12:58;;;;;;;13.65;7.93;;;;;;;13.33;73.03;99147.56;5102312;28;20055;-95
2021/10/26 07:15:28;;;;;;;12.73;7.85;;;;;;;13.33;72.81;99123.53;5103083;28;20055;-96
2021/10/26 07:17:54;;;;;;;16.58;10.07;;;;;;;13.56;72.52;99150.38;5102524;28;20485;-95
2021/10/26 07:20:20;;;;;;;23.45;11.65;;;;;;;13.69;73.55;99172.22;5099810;28;20036;-94
2021/10/26 07:22:52;;;;;;;23.98;11.10;;;;;;;13.59;72.83;99161.88;5098229;28;20428;-96
2021/10/26 07:25:19;;;;;;;22.00;11.52;;;;;;;13.58;72.68;99153.00;5099822;28;20040;-95
2021/10/26 07:27:47;;;;;;;20.75;11.52;;;;;;;13.76;72.88;99176.41;5098991;28;20089;-95
2021/10/26 07:30:13;;;;;;;24.02;11.98;;;;;;;13.71;72.14;99162.34;5098081;28;20396;-95
2021/10/26 07:32:41;;;;;;;23.20;12.30;;;;;;;13.83;72.14;99177.09;5098197;28;20448;-95
2021/10/26 07:35:09;;;;;;;21.17;11.75;;;;;;;13.73;71.55;99157.81;5098105;28;20397;-95
2021/10/26 07:37:40;;;;;;;20.88;12.40;;;;;;;13.74;72.23;99156.88;5098008;28;20044;-96
2021/10/26 07:40:09;;;;;;;23.67;11.90;;;;;;;13.87;72.20;99168.03;5098676;28;20040;-95
2021/10/26 07:42:35;;;;;;;21.00;11.50;;;;;;;13.86;72.24;99170.78;5099149;28;20051;-95
2021/10/26 07:45:01;;;;;;;26.80;12.07;;;;;;;13.82;71.91;99159.31;5097560;28;20097;-95
2021/10/26 07:47:27;;;;;;;23.88;12.20;;;;;;;14.05;71.62;99193.28;5097290;28;20043;-96
2021/10/26 07:49:54;;;;;;;27.77;14.82;;;;;;;14.04;71.48;99171.94;5096748;28;20597;-94
2021/10/26 07:52:21;;;;;;;32.35;15.07;;;;;;;14.06;71.01;99178.13;5096071;28;20079;-94
2021/10/26 07:57:48;;;;;;;20.85;12.63;;;;;;;14.09;70.95;99172.66;5113313;27;20373;-94
2021/10/26 08:00:14;;;;;;;23.75;11.65;;;;;;;14.15;71.23;99178.66;5112893;28;20044;-94
2021/10/26 08:02:40;;;;;;;31.17;13.63;;;;;;;14.15;71.05;99177.78;5115220;28;20513;-94
2021/10/26 08:05:06;;;;;;;19.85;11.65;;;;;;;14.15;72.05;99192.03;5104316;28;20036;-93
2021/10/26 08:07:32;;;;;;;18.38;10.73;;;;;;;14.30;72.46;99198.63;5109031;28;20105;-92
2021/10/26 08:09:59;;;;;;;20.05;10.05;;;;;;;14.19;70.67;99184.78;5103959;28;20486;-94
2021/10/26 08:12:26;;;;;;;19.35;10.85;;;;;;;14.48;70.58;99205.13;5097988;28;20409;-94
2021/10/26 08:14:53;;;;;;;13.52;8.00;;;;;;;14.55;69.07;99187.06;5094836;28;20109;-93
2021/10/26 08:17:19;;;;;;;12.63;7.82;;;;;;;14.60;69.32;99189.63;5103453;28;20040;-93
2021/10/26 08:19:47;;;;;;;16.52;10.63;;;;;;;14.46;68.89;99177.53;5103016;28;20048;-93
2021/10/26 08:22:16;;;;;;;11.35;6.78;;;;;;;14.61;68.84;99191.34;5105226;28;20116;-94
2021/10/26 08:24:44;;;;;;;14.02;6.68;;;;;;;14.66;68.80;99192.03;5100466;28;20072;-92
2021/10/26 08:27:13;;;;;;;14.45;7.13;;;;;;;14.52;68.34;99193.38;5105378;28;20473;-93
2021/10/26 08:35:37;;;;;;;13.25;7.57;;;;;;;14.56;69.46;99195.06;5133060;27;20356;-92
2021/10/26 08:38:06;;;;;;;10.48;6.78;;;;;;;14.52;68.26;99174.66;5132411;27;20088;-94
2021/10/26 08:40:33;;;;;;;10.73;7.40;;;;;;;14.61;68.81;99176.16;5133713;27;20384;-93
2021/10/26 08:46:03;;;;;;;11.27;7.53;;;;;;;14.61;68.65;99183.31;5148579;27;20876;-94
2021/10/26 08:48:30;;;;;;;12.52;7.22;;;;;;;14.75;68.26;99179.19;5118497;28;20054;-94
2021/10/26 08:51:00;;;;;;;12.60;7.55;;;;;;;14.41;69.04;99171.50;5123332;28;20067;-93
2021/10/26 08:53:29;;;;;;;13.32;7.40;;;;;;;14.62;69.03;99169.88;5126500;27;20035;-94
2021/10/26 08:55:57;;;;;;;13.02;7.93;;;;;;;14.53;68.72;99173.75;5128782;28;20047;-94
2021/10/26 08:58:24;;;;;;;11.32;7.05;;;;;;;14.72;68.36;99175.75;5125142;28;20059;-93
2021/10/26 09:00:50;;;;;;;13.90;7.22;;;;;;;14.68;68.87;99158.94;5123102;27;20044;-94
2021/10/26 09:03:19;;;;;;;13.38;7.03;;;;;;;14.83;66.91;99145.91;5125851;28;20046;-92
2021/10/26 09:05:46;;;;;;;12.32;7.13;;;;;;;14.89;67.43;99165.28;5120021;27;20039;-93
2021/10/26 09:08:13;;;;;;;11.90;7.03;;;;;;;14.70;68.00;99174.94;5127541;28;20040;-91
2021/10/26 09:10:40;;;;;;;11.98;6.80;;;;;;;14.77;68.31;99147.88;5125910;28;20124;-94
2021/10/26 09:19:18;;;;;;;13.55;6.93;;;;;;;15.02;67.30;99167.50;5091938;27;20659;-94
2021/10/26 09:21:54;;;;;;;10.90;6.43;;;;;;;15.05;67.14;99157.53;5091780;28;20401;-95
2021/10/26 09:24:20;;;;;;;10.55;6.60;;;;;;;14.78;67.52;99146.94;5092504;28;20127;-94
2021/10/26 09:26:51;;;;;;;10.57;7.25;;;;;;;14.50;69.43;99160.44;5091826;28;20047;-93
2021/10/26 09:29:22;;;;;;;10.68;6.80;;;;;;;14.92;68.15;99166.97;5089308;28;20048;-92
2021/10/26 09:31:48;;;;;;;13.98;8.13;;;;;;;15.16;68.18;99160.66;5090179;28;20045;-93
2021/10/26 09:34:18;;;;;;;14.35;7.28;;;;;;;15.08;67.06;99149.38;5092512;28;20044;-93
2021/10/26 09:36:47;;;;;;;14.23;7.05;;;;;;;15.03;67.34;99151.38;5088345;28;20136;-93
2021/10/26 09:39:18;;;;;;;12.70;7.20;;;;;;;15.29;67.10;99160.16;5091843;28;20461;-94
2021/10/26 09:42:06;;;;;;;11.93;6.95;;;;;;;15.14;67.15;99133.06;5091776;28;20036;-93
2021/10/26 09:44:36;;;;;;;10.53;6.13;;;;;;;15.23;67.29;99142.53;5091777;28;20047;-94
2021/10/26 09:47:05;;;;;;;13.00;7.70;;;;;;;14.98;67.52;99138.16;5091452;28;20064;-95
2021/10/26 09:49:36;;;;;;;16.63;8.10;;;;;;;14.96;67.88;99137.34;5092042;28;20036;-93
2021/10/26 09:52:11;;;;;;;13.70;7.55;;;;;;;15.30;66.66;99144.03;5090931;28;20071;-94
2021/10/26 09:54:37;;;;;;;12.95;7.47;;;;;;;15.61;66.11;99130.25;5090137;28;20048;-94
2021/10/26 09:57:08;;;;;;;13.55;7.55;;;;;;;15.73;65.38;99133.38;5091676;28;20044;-96
2021/10/26 09:59:35;;;;;;;12.27;6.97;;;;;;;15.81;65.55;99132.13;5091088;28;20612;-94
2021/10/26 10:02:01;;;;;;;12.02;6.85;;;;;;;15.94;65.02;99135.16;5090568;28;20055;-95
2021/10/26 10:04:28;;;;;;;12.40;7.55;;;;;;;15.90;65.27;99125.50;5091265;28;20037;-92
2021/10/26 10:06:55;;;;;;;13.63;7.15;;;;;;;15.93;65.60;99136.06;5091354;28;20040;-94
2021/10/26 10:09:21;;;;;;;15.07;7.30;;;;;;;15.90;64.93;99122.81;5088902;28;20124;-94
2021/10/26 10:12:04;;;;;;;13.60;7.22;;;;;;;15.85;65.99;99135.53;5091980;28;20397;-93
2021/10/26 10:14:31;;;;;;;11.93;7.00;;;;;;;16.07;65.38;99123.88;5088458;28;20050;-94
2021/10/26 10:16:57;;;;;;;11.23;7.25;;;;;;;16.29;63.67;99129.19;5089547;28;20032;-94
2021/10/26 10:19:23;;;;;;;14.15;7.60;;;;;;;16.11;65.09;99134.44;5090331;28;20067;-93
2021/10/26 10:21:51;;;;;;;13.93;7.53;;;;;;;16.28;64.81;99136.34;5090214;28;20029;-95
2021/10/26 10:24:19;;;;;;;13.23;8.35;;;;;;;15.95;65.11;99131.53;5090648;28;20401;-92
2021/10/26 10:26:49;;;;;;;16.53;9.37;;;;;;;15.87;65.39;99122.06;5090604;28;20482;-92
2021/10/26 10:29:16;;;;;;;15.77;8.57;;;;;;;15.99;65.21;99110.81;5082662;28;20277;-94
2021/10/26 10:31:47;;;;;;;14.65;8.13;;;;;;;15.87;65.64;99106.84;5076756;28;20041;-93
2021/10/26 10:34:16;;;;;;;14.93;7.70;;;;;;;15.96;66.05;99090.38;5076576;28;20059;-93
2021/10/26 10:36:43;;;;;;;13.32;7.40;;;;;;;16.31;65.17;99100.44;5076033;28;20097;-95
2021/10/26 10:39:10;;;;;;;16.95;7.70;;;;;;;16.19;65.42;99097.38;5077255;28;20044;-95
2021/10/26 10:41:42;;;;;;;11.77;7.85;;;;;;;16.39;63.16;99103.66;5073843;28;20033;-94
2021/10/26 10:44:35;;;;;;;13.13;7.65;;;;;;;16.41;63.61;99080.28;5077568;28;20055;-93
2021/10/26 10:47:01;;;;;;;12.55;7.20;;;;;;;16.42;62.59;99087.44;5074827;28;20502;-93
2021/10/26 10:49:43;;;;;;;13.70;7.22;;;;;;;16.68;61.82;99093.41;5076433;28;20051;-93
2021/10/26 10:52:13;;;;;;;14.43;7.72;;;;;;;16.83;62.29;99080.16;5074936;28;20040;-93
2021/10/26 10:57:41;;;;;;;12.88;7.60;;;;;;;17.04;61.52;99083.63;5103590;27;20371;-93
2021/10/26 11:00:18;;;;;;;12.07;7.03;;;;;;;16.83;61.10;99081.97;5070478;28;20045;-94
2021/10/26 11:02:46;;;;;;;13.90;8.35;;;;;;;17.04;60.80;99080.94;5069403;28;20064;-93
2021/10/26 11:08:47;;;;;;;17.98;7.88;;;;;;;16.69;62.73;99082.56;5102885;27;20391;-96
2021/10/26 11:11:15;;;;;;;15.85;7.93;;;;;;;16.93;61.90;99068.97;5068018;28;20037;-92
2021/10/26 11:13:41;;;;;;;13.38;7.95;;;;;;;17.06;61.09;99069.22;5071733;28;20071;-93
2021/10/26 11:16:09;;;;;;;13.98;7.97;;;;;;;17.13;61.03;99076.03;5067604;28;20032;-91
2021/10/26 11:18:37;;;;;;;12.65;7.60;;;;;;;16.98;62.27;99059.75;5070468;28;20041;-93
2021/10/26 11:21:05;;;;;;;13.32;7.35;;;;;;;16.33;62.91;99056.50;5071123;28;20037;-93
2021/10/26 11:23:36;;;;;;;11.82;7.70;;;;;;;16.57;62.09;99048.25;5070293;28;20043;-93
2021/10/26 11:26:07;;;;;;;13.65;7.22;;;;;;;16.67;61.64;99040.63;5072488;28;20473;-93
2021/10/26 11:28:48;;;;;;;29.35;14.75;;;;;;;16.26;62.44;99041.63;5070918;28;20111;-92
2021/10/26 11:31:16;;;;;;;14.60;7.85;;;;;;;16.40;62.56;99070.53;5070476;28;20037;-92
2021/10/26 11:34:01;;;;;;;11.73;7.47;;;;;;;16.56;62.54;99057.25;5067342;28;20068;-92
2021/10/26 11:36:31;;;;;;;17.20;9.85;;;;;;;16.76;62.02;99049.13;5066318;28;20128;-93
2021/10/26 11:38:59;;;;;;;13.15;7.90;;;;;;;16.80;61.14;99041.81;5071241;28;20118;-94
2021/10/26 11:41:27;;;;;;;11.77;7.10;;;;;;;16.91;60.17;99028.72;5070462;28;20050;-92
2021/10/26 11:43:55;;;;;;;16.50;7.93;;;;;;;16.73;61.82;99048.41;5071770;28;20041;-93
2021/10/26 11:46:28;;;;;;;12.35;6.88;;;;;;;16.62;62.00;99047.09;5071229;28;20116;-93
2021/10/26 11:48:58;;;;;;;13.32;7.45;;;;;;;16.87;61.21;99032.50;5070360;28;20095;-92
2021/10/26 11:51:27;;;;;;;12.48;7.40;;;;;;;16.52;61.29;99020.75;5070343;28;20102;-93
2021/10/26 11:53:54;;;;;;;11.57;6.53;;;;;;;16.91;60.65;99039.47;5070261;28;20037;-93
2021/10/26 11:56:21;;;;;;;13.98;7.90;;;;;;;16.96;60.49;99036.59;5070675;28;20195;-94